East Union, Indiana
Current Conditions -  °F | °C
As of 6:55 PM on Wednesday 22 Oct 2014 (Local Time) from KTYQ Reporting Station
Clear Clear  
Wind Chill: 52°   Ceiling: Unl
Heat Index: 52°   Visibility: 10mi
Dew Point: 38°   Wind: 0mph
Humidity: 60%   Direction: NA
Pressure: 30.27"   Gusts: NA
Location:  40.1832°N, 85.9359°W
Report Text: KTYQ 222255Z AUTO 00000KT 10SM CLR 11/04 A3027 RMK AO2 T01110035
Loading
Personal Weather Stations






























Interactive Weather Map
Tropical Storm Tracking
New forecast layout! Learn more

10-Day Weather Forecast

Advertisements
Track Severe Weather on mobile